Time;durP1;ratioP1;P1;durP2;ratioP2;P2;SDS_P1;SDS_P2;PMS_P1;PMS_P2;Temp;Humidity;BMP_temperature;BMP_pressure;BME280_temperature;BME280_humidity;BME280_pressure;Samples;Min_cycle;Max_cycle;Signal;HPM_P1;HPM_P2
2023/02/06 00:00:37;;;;;;;21.17;16.70;;;;;5.50;100599.00;;;;4937121;29;20047;-63
2023/02/06 00:03:04;;;;;;;20.73;15.88;;;;;5.60;100602.00;;;;4936969;29;20095;-63
2023/02/06 00:05:31;;;;;;;19.10;16.25;;;;;5.60;100597.00;;;;4936343;29;20527;-63
2023/02/06 00:07:57;;;;;;;20.52;16.15;;;;;5.60;100588.00;;;;4937002;29;20071;-63
2023/02/06 00:10:24;;;;;;;19.58;15.88;;;;;5.60;100603.00;;;;4936747;29;20051;-63
2023/02/06 00:12:51;;;;;;;18.70;15.45;;;;;5.70;100599.00;;;;4919728;29;20047;-63
2023/02/06 00:15:17;;;;;;;22.17;16.63;;;;;5.70;100614.00;;;;4919259;29;20559;-63
2023/02/06 00:17:44;;;;;;;19.15;15.25;;;;;5.60;100616.00;;;;4936895;29;20512;-63
2023/02/06 00:20:11;;;;;;;17.00;14.18;;;;;5.60;100609.00;;;;4919585;29;20457;-63
2023/02/06 00:22:38;;;;;;;18.40;13.55;;;;;5.60;100614.00;;;;4936567;29;20449;-63
2023/02/06 00:25:05;;;;;;;14.73;12.65;;;;;5.60;100607.00;;;;4918645;29;20062;-63
2023/02/06 00:27:32;;;;;;;15.05;12.68;;;;;5.60;100610.00;;;;4936484;29;20169;-63
2023/02/06 00:29:58;;;;;;;16.38;12.00;;;;;5.60;100610.00;;;;4919252;29;20457;-63
2023/02/06 00:32:25;;;;;;;16.08;12.52;;;;;5.50;100611.00;;;;4919373;29;20058;-63
2023/02/06 00:34:51;;;;;;;18.13;12.75;;;;;5.50;100607.00;;;;4935769;29;20048;-63
2023/02/06 00:37:18;;;;;;;16.80;13.60;;;;;5.50;100619.00;;;;4919276;29;20394;-63
2023/02/06 00:39:45;;;;;;;16.30;13.68;;;;;5.50;100619.00;;;;4919486;29;20055;-63
2023/02/06 00:42:13;;;;;;;17.45;13.55;;;;;5.40;100615.00;;;;4936232;29;20040;-63
2023/02/06 00:44:39;;;;;;;15.82;13.10;;;;;5.50;100623.00;;;;4935820;29;20501;-63
2023/02/06 00:47:07;;;;;;;16.10;13.70;;;;;5.50;100623.00;;;;4935954;29;20047;-64
2023/02/06 00:49:34;;;;;;;16.77;13.45;;;;;5.50;100623.00;;;;4935959;29;20043;-63
2023/02/06 00:52:00;;;;;;;15.52;12.90;;;;;5.40;100621.00;;;;4918907;29;20059;-63
2023/02/06 00:54:27;;;;;;;15.48;13.13;;;;;5.50;100621.00;;;;4917926;29;20052;-64
2023/02/06 00:56:53;;;;;;;17.45;13.70;;;;;5.50;100622.00;;;;4936136;29;20496;-63
2023/02/06 00:59:20;;;;;;;16.83;13.43;;;;;5.50;100629.00;;;;4918694;29;20052;-63
2023/02/06 01:01:46;;;;;;;15.25;12.57;;;;;5.40;100628.00;;;;4936427;29;20050;-62
2023/02/06 01:04:13;;;;;;;16.90;13.43;;;;;5.50;100629.00;;;;4935666;29;20405;-64
2023/02/06 01:06:39;;;;;;;16.27;13.10;;;;;5.50;100627.00;;;;4935631;29;20497;-63
2023/02/06 01:09:06;;;;;;;14.00;11.73;;;;;5.50;100626.00;;;;4935736;29;20044;-64
2023/02/06 01:11:34;;;;;;;13.55;12.00;;;;;5.40;100633.00;;;;4935764;29;20055;-64
2023/02/06 01:14:00;;;;;;;15.13;12.20;;;;;5.40;100626.00;;;;4935576;29;20516;-63
2023/02/06 01:16:27;;;;;;;14.35;11.85;;;;;5.50;100625.00;;;;4935602;29;20400;-61
2023/02/06 01:18:54;;;;;;;14.13;11.82;;;;;5.60;100629.00;;;;4935586;29;20067;-63
2023/02/06 01:21:23;;;;;;;14.70;11.98;;;;;5.50;100631.00;;;;4918797;29;20044;-62
2023/02/06 01:23:52;;;;;;;16.73;11.63;;;;;5.50;100630.00;;;;4935484;29;20059;-62
2023/02/06 01:26:21;;;;;;;15.10;11.77;;;;;5.50;100634.00;;;;4935183;29;20054;-62
2023/02/06 01:28:48;;;;;;;14.15;10.38;;;;;5.50;100634.00;;;;4919024;29;20048;-60
2023/02/06 01:31:27;;;;;;;12.02;10.15;;;;;5.60;100634.00;;;;4936157;29;20043;-62
2023/02/06 01:33:56;;;;;;;11.77;9.90;;;;;5.60;100628.00;;;;4918471;29;20515;-64
2023/02/06 01:36:23;;;;;;;13.00;10.27;;;;;5.60;100625.00;;;;4918224;29;20062;-62
2023/02/06 01:38:50;;;;;;;11.63;9.80;;;;;5.60;100630.00;;;;4918837;29;20472;-61
2023/02/06 01:41:19;;;;;;;14.30;10.57;;;;;5.60;100634.00;;;;4919007;29;20381;-62
2023/02/06 01:44:09;;;;;;;10.35;8.65;;;;;5.60;100625.00;;;;4935867;29;20044;-60
2023/02/06 01:46:37;;;;;;;10.80;8.82;;;;;5.50;100613.00;;;;4918535;29;20417;-62
2023/02/06 01:49:07;;;;;;;11.32;9.25;;;;;5.50;100624.00;;;;4935389;29;20040;-63
2023/02/06 01:51:34;;;;;;;12.35;9.52;;;;;5.50;100619.00;;;;4940445;29;20066;-63
2023/02/06 01:54:04;;;;;;;8.93;7.80;;;;;5.50;100612.00;;;;4925549;29;20114;-62
2023/02/06 01:56:36;;;;;;;9.05;7.20;;;;;5.40;100620.00;;;;4919807;29;20088;-63
2023/02/06 01:59:04;;;;;;;10.75;7.68;;;;;5.30;100618.00;;;;4935323;29;20048;-62
2023/02/06 02:01:32;;;;;;;6.72;6.00;;;;;5.30;100620.00;;;;4935645;29;20047;-63
2023/02/06 02:04:06;;;;;;;9.77;7.03;;;;;5.20;100623.00;;;;4935068;29;20556;-63
2023/02/06 02:06:34;;;;;;;7.25;6.50;;;;;5.30;100616.00;;;;4918528;29;20135;-62
2023/02/06 02:09:02;;;;;;;8.52;6.53;;;;;5.20;100613.00;;;;4935629;29;20444;-63
2023/02/06 02:11:32;;;;;;;7.53;6.13;;;;;5.10;100613.00;;;;4935182;29;20098;-63
2023/02/06 02:14:02;;;;;;;8.07;6.72;;;;;5.10;100602.00;;;;4917975;29;20056;-63
2023/02/06 02:16:55;;;;;;;9.70;7.15;;;;;5.10;100609.00;;;;4934803;29;20050;-63
2023/02/06 02:20:09;;;;;;;9.07;6.67;;;;;5.10;100602.00;;;;4917604;29;20070;-62
2023/02/06 02:22:48;;;;;;;8.85;7.32;;;;;5.00;100609.00;;;;4917928;29;20052;-62
2023/02/06 02:25:36;;;;;;;9.93;7.45;;;;;5.00;100606.00;;;;4934389;29;20060;-63
2023/02/06 02:28:34;;;;;;;12.52;8.60;;;;;5.10;100591.00;;;;4917389;29;20115;-63
2023/02/06 02:31:10;;;;;;;10.65;8.75;;;;;5.10;100595.00;;;;4917674;29;20040;-63
2023/02/06 02:33:55;;;;;;;12.70;8.07;;;;;5.10;100596.00;;;;4934800;29;20106;-63
2023/02/06 02:36:38;;;;;;;11.45;9.00;;;;;5.10;100578.00;;;;4901723;29;20142;-63
2023/02/06 02:39:23;;;;;;;9.45;7.47;;;;;5.10;100582.00;;;;4934592;29;20442;-61
2023/02/06 02:42:09;;;;;;;8.70;7.80;;;;;5.10;100588.00;;;;4917586;29;20513;-61
2023/02/06 02:45:07;;;;;;;8.35;7.45;;;;;5.00;100593.00;;;;4916776;29;20044;-61
2023/02/06 02:47:56;;;;;;;9.20;6.90;;;;;5.00;100582.00;;;;4917781;29;20044;-61
2023/02/06 02:50:23;;;;;;;9.98;7.28;;;;;4.90;100590.00;;;;4918320;29;20083;-61
2023/02/06 02:52:50;;;;;;;11.07;7.38;;;;;4.90;100591.00;;;;4917457;29;20056;-61
2023/02/06 02:55:21;;;;;;;9.43;6.68;;;;;5.00;100600.00;;;;4916573;29;20497;-62
2023/02/06 02:57:58;;;;;;;9.70;7.55;;;;;4.90;100590.00;;;;4917678;29;20055;-63
2023/02/06 03:00:25;;;;;;;10.57;7.53;;;;;4.90;100578.00;;;;4938757;29;20071;-63
2023/02/06 03:02:54;;;;;;;11.05;7.82;;;;;4.90;100588.00;;;;4922024;29;20064;-63
2023/02/06 03:05:23;;;;;;;10.40;7.43;;;;;4.90;100591.00;;;;4938270;29;20298;-63
2023/02/06 03:07:52;;;;;;;9.02;7.60;;;;;5.00;100599.00;;;;4921623;29;20060;-62
2023/02/06 03:10:25;;;;;;;10.00;7.40;;;;;4.90;100590.00;;;;4921587;29;20044;-63
2023/02/06 03:12:58;;;;;;;11.00;8.20;;;;;4.80;100594.00;;;;4921388;29;20173;-63
2023/02/06 03:15:33;;;;;;;9.80;7.35;;;;;4.70;100603.00;;;;4937830;29;20265;-62
2023/02/06 03:18:11;;;;;;;8.18;6.97;;;;;4.70;100596.00;;;;4938368;29;20047;-63
2023/02/06 03:20:43;;;;;;;10.95;8.00;;;;;4.70;100595.00;;;;4921239;29;20417;-63
2023/02/06 03:23:20;;;;;;;6.82;6.05;;;;;4.70;100595.00;;;;4938423;29;20071;-63
2023/02/06 03:25:51;;;;;;;7.78;6.70;;;;;4.60;100587.00;;;;4937622;29;20039;-63
2023/02/06 03:28:31;;;;;;;10.73;7.78;;;;;4.60;100594.00;;;;4938228;29;20103;-63
2023/02/06 03:31:00;;;;;;;9.15;7.35;;;;;4.70;100590.00;;;;4938165;29;20421;-63
2023/02/06 03:33:36;;;;;;;10.25;7.63;;;;;4.80;100603.00;;;;4938170;29;20051;-63
2023/02/06 03:36:04;;;;;;;8.95;6.97;;;;;4.70;100603.00;;;;4920556;29;20043;-62
2023/02/06 03:38:31;;;;;;;10.13;7.13;;;;;4.80;100613.00;;;;4938417;29;20054;-62
2023/02/06 03:40:59;;;;;;;9.52;7.43;;;;;4.80;100612.00;;;;4939356;29;20285;-61
2023/02/06 03:43:28;;;;;;;9.05;7.35;;;;;4.90;100612.00;;;;4921425;29;20048;-60
2023/02/06 03:46:01;;;;;;;10.25;7.65;;;;;4.90;100622.00;;;;4921242;29;20035;-62
2023/02/06 03:48:36;;;;;;;9.18;7.60;;;;;4.90;100602.00;;;;4905694;29;20047;-63
2023/02/06 03:51:10;;;;;;;10.65;8.40;;;;;4.80;100607.00;;;;4920931;29;20428;-62
2023/02/06 03:53:37;;;;;;;10.32;8.05;;;;;4.80;100608.00;;;;4937877;29;20087;-61
2023/02/06 03:56:11;;;;;;;9.02;6.85;;;;;4.70;100607.00;;;;4938578;29;20111;-61
2023/02/06 03:58:38;;;;;;;7.90;6.40;;;;;4.70;100605.00;;;;4924028;29;20691;-62
2023/02/06 04:01:06;;;;;;;6.13;5.47;;;;;4.70;100596.00;;;;4941357;29;20054;-62
2023/02/06 04:03:33;;;;;;;7.20;5.40;;;;;4.70;100591.00;;;;4940930;29;20059;-62
2023/02/06 04:05:59;;;;;;;7.05;5.60;;;;;4.70;100591.00;;;;4940669;29;20039;-62
2023/02/06 04:08:26;;;;;;;7.55;5.68;;;;;4.60;100595.00;;;;4941381;29;20051;-63
2023/02/06 04:10:52;;;;;;;6.25;5.30;;;;;4.60;100597.00;;;;4939950;29;20058;-63
2023/02/06 04:13:19;;;;;;;7.38;5.68;;;;;4.60;100595.00;;;;4940825;29;20524;-62
2023/02/06 04:15:45;;;;;;;6.40;4.80;;;;;4.60;100603.00;;;;4940274;29;20039;-62
2023/02/06 04:18:12;;;;;;;6.78;5.10;;;;;4.60;100614.00;;;;4940642;29;20044;-62
2023/02/06 04:20:39;;;;;;;6.53;5.47;;;;;4.50;100598.00;;;;4940433;29;20046;-62
2023/02/06 04:23:07;;;;;;;7.18;4.90;;;;;4.50;100602.00;;;;4923108;29;20103;-62
2023/02/06 04:25:34;;;;;;;6.80;6.00;;;;;4.60;100592.00;;;;4941032;29;20102;-63
2023/02/06 04:28:01;;;;;;;9.45;7.35;;;;;4.60;100589.00;;;;4940764;29;20052;-62
2023/02/06 04:30:28;;;;;;;8.55;6.82;;;;;4.60;100594.00;;;;4937604;29;20478;-62
2023/02/06 04:32:54;;;;;;;7.70;5.88;;;;;4.60;100591.00;;;;4937357;29;20068;-62
2023/02/06 04:35:21;;;;;;;7.05;5.95;;;;;4.70;100598.00;;;;4936505;29;20047;-62
2023/02/06 04:37:47;;;;;;;7.97;6.15;;;;;4.70;100594.00;;;;4937776;29;20044;-63
2023/02/06 04:40:14;;;;;;;7.05;5.70;;;;;4.80;100599.00;;;;4938735;29;20052;-62
2023/02/06 04:42:40;;;;;;;7.40;6.10;;;;;4.80;100594.00;;;;4937566;29;20055;-62
2023/02/06 04:45:07;;;;;;;6.43;5.25;;;;;4.90;100606.00;;;;4936509;29;20039;-62
2023/02/06 04:47:34;;;;;;;7.47;5.43;;;;;4.90;100602.00;;;;4936958;29;20079;-62
2023/02/06 04:50:01;;;;;;;6.15;4.90;;;;;4.90;100606.00;;;;4937149;29;20051;-64
2023/02/06 04:52:28;;;;;;;5.60;5.00;;;;;4.80;100605.00;;;;4937088;29;20048;-63
2023/02/06 04:54:54;;;;;;;6.90;5.53;;;;;4.80;100597.00;;;;4903940;29;20110;-63
2023/02/06 04:57:22;;;;;;;6.30;4.90;;;;;4.70;100605.00;;;;4919918;29;20047;-63
2023/02/06 04:59:49;;;;;;;5.78;5.18;;;;;4.60;100597.00;;;;4936817;29;20043;-64
2023/02/06 05:02:15;;;;;;;7.05;4.97;;;;;4.60;100599.00;;;;4936484;29;20055;-63
2023/02/06 05:04:42;;;;;;;7.05;5.00;;;;;4.60;100613.00;;;;4935988;29;20122;-63
2023/02/06 05:07:08;;;;;;;7.28;5.18;;;;;4.60;100612.00;;;;4936922;29;20040;-63
2023/02/06 05:09:35;;;;;;;7.10;5.72;;;;;4.70;100617.00;;;;4936892;29;20386;-63
2023/02/06 05:12:01;;;;;;;7.18;5.32;;;;;4.70;100608.00;;;;4936511;29;20056;-63
2023/02/06 05:14:28;;;;;;;6.75;5.45;;;;;4.70;100616.00;;;;4935681;29;20070;-63
2023/02/06 05:16:54;;;;;;;7.07;5.88;;;;;4.60;100607.00;;;;4936418;29;20044;-63
2023/02/06 05:19:21;;;;;;;8.27;5.68;;;;;4.60;100607.00;;;;4936341;29;20456;-64
2023/02/06 05:21:47;;;;;;;7.03;5.75;;;;;4.60;100604.00;;;;4935918;29;20043;-63
2023/02/06 05:24:14;;;;;;;7.43;5.30;;;;;4.60;100603.00;;;;4935737;29;20134;-63
2023/02/06 05:26:40;;;;;;;7.45;6.15;;;;;4.50;100610.00;;;;4936074;29;20054;-63
2023/02/06 05:29:07;;;;;;;7.38;6.05;;;;;4.50;100613.00;;;;4936239;29;20456;-63
2023/02/06 05:31:34;;;;;;;8.68;6.20;;;;;4.50;100602.00;;;;4935824;29;20067;-63
2023/02/06 05:34:01;;;;;;;8.55;5.97;;;;;4.50;100612.00;;;;4935674;29;20048;-63
2023/02/06 05:36:28;;;;;;;9.10;6.70;;;;;4.60;100610.00;;;;4935441;29;20054;-63
2023/02/06 05:38:54;;;;;;;9.32;6.75;;;;;4.70;100618.00;;;;4936220;29;20047;-63
2023/02/06 05:41:21;;;;;;;7.90;6.55;;;;;4.70;100609.00;;;;4936169;29;20058;-63
2023/02/06 05:43:47;;;;;;;8.75;6.38;;;;;4.60;100614.00;;;;4942024;29;20040;-63
2023/02/06 05:46:14;;;;;;;10.00;7.28;;;;;4.60;100617.00;;;;4943250;29;20572;-64
2023/02/06 05:48:41;;;;;;;10.75;6.03;;;;;4.60;100606.00;;;;4937553;29;20043;-63
2023/02/06 05:51:07;;;;;;;8.82;6.38;;;;;4.50;100611.00;;;;4935885;29;20059;-63
2023/02/06 05:53:34;;;;;;;10.88;7.00;;;;;4.40;100616.00;;;;4936061;29;20047;-63
2023/02/06 05:56:01;;;;;;;7.82;6.20;;;;;4.40;100616.00;;;;4934880;29;20094;-62
2023/02/06 05:58:27;;;;;;;8.43;6.13;;;;;4.40;100616.00;;;;4935565;29;20056;-63
2023/02/06 06:00:54;;;;;;;8.45;6.38;;;;;4.40;100616.00;;;;4919088;29;20048;-63
2023/02/06 06:03:20;;;;;;;10.38;7.30;;;;;4.30;100626.00;;;;4935682;29;20095;-62
2023/02/06 06:05:47;;;;;;;9.63;6.45;;;;;4.30;100621.00;;;;4935218;29;20048;-62
2023/02/06 06:08:14;;;;;;;7.97;6.25;;;;;4.20;100606.00;;;;4935607;29;20047;-62
2023/02/06 06:10:41;;;;;;;8.73;6.50;;;;;4.20;100617.00;;;;4935556;29;20051;-64
2023/02/06 06:13:07;;;;;;;7.75;6.28;;;;;4.20;100614.00;;;;4935129;29;20055;-63
2023/02/06 06:15:34;;;;;;;8.75;6.40;;;;;4.10;100615.00;;;;4934616;29;20048;-63
2023/02/06 06:18:01;;;;;;;10.27;7.07;;;;;4.10;100615.00;;;;4935242;29;20512;-63
2023/02/06 06:20:28;;;;;;;8.80;6.38;;;;;4.10;100606.00;;;;4935085;29;20182;-62
2023/02/06 06:22:54;;;;;;;22.83;15.05;;;;;4.20;100603.00;;;;4935135;29;20593;-64
2023/02/06 06:25:21;;;;;;;12.93;9.32;;;;;4.20;100602.00;;;;4934444;29;20087;-63
2023/02/06 06:27:47;;;;;;;10.30;6.90;;;;;4.20;100609.00;;;;4934892;29;20131;-63
2023/02/06 06:30:14;;;;;;;9.32;7.47;;;;;4.10;100593.00;;;;4935249;29;20051;-63
2023/02/06 06:32:40;;;;;;;8.68;7.15;;;;;4.20;100600.00;;;;4917623;29;20047;-63
2023/02/06 06:35:07;;;;;;;12.52;7.78;;;;;4.20;100608.00;;;;4934086;29;20039;-63
2023/02/06 06:37:34;;;;;;;8.95;7.90;;;;;4.30;100607.00;;;;4934697;29;20055;-63
2023/02/06 06:40:00;;;;;;;9.43;7.18;;;;;4.30;100609.00;;;;4934765;29;20561;-63
2023/02/06 06:42:27;;;;;;;10.27;8.10;;;;;4.30;100607.00;;;;4934719;29;20150;-62
2023/02/06 06:44:53;;;;;;;11.95;8.00;;;;;4.30;100609.00;;;;4934497;29;20501;-63
2023/02/06 06:47:20;;;;;;;10.80;8.25;;;;;4.30;100621.00;;;;4935014;29;20040;-63
2023/02/06 06:49:46;;;;;;;10.73;8.52;;;;;4.30;100617.00;;;;4934752;29;20078;-63
2023/02/06 06:52:13;;;;;;;12.05;7.97;;;;;4.30;100611.00;;;;4934704;29;20051;-62
2023/02/06 06:54:50;;;;;;;11.30;8.60;;;;;4.30;100608.00;;;;4934092;29;20561;-64
2023/02/06 06:57:19;;;;;;;11.55;8.02;;;;;4.50;100603.00;;;;4934966;29;20048;-63
2023/02/06 06:59:45;;;;;;;9.60;8.20;;;;;4.50;100596.00;;;;4934837;29;20047;-63
2023/02/06 07:02:13;;;;;;;10.27;8.00;;;;;4.50;100601.00;;;;4934637;29;20051;-63
2023/02/06 07:04:39;;;;;;;11.27;8.45;;;;;4.50;100615.00;;;;4934506;29;20073;-62
2023/02/06 07:07:06;;;;;;;11.45;8.30;;;;;4.30;100615.00;;;;4934623;29;20040;-63
2023/02/06 07:09:33;;;;;;;10.82;8.48;;;;;4.30;100616.00;;;;4934611;29;20134;-63
2023/02/06 07:11:59;;;;;;;11.48;8.93;;;;;4.20;100608.00;;;;4934599;29;20091;-63
2023/02/06 07:14:26;;;;;;;12.32;9.40;;;;;4.20;100598.00;;;;4934068;29;20051;-64
2023/02/06 07:16:52;;;;;;;10.80;8.98;;;;;4.20;100601.00;;;;4934594;29;20040;-62
2023/02/06 07:19:20;;;;;;;11.88;9.48;;;;;4.30;100606.00;;;;4935026;29;20051;-62
2023/02/06 07:21:46;;;;;;;12.45;9.30;;;;;4.20;100607.00;;;;4918022;29;20047;-62
2023/02/06 07:24:13;;;;;;;9.85;8.30;;;;;4.20;100607.00;;;;4934519;29;20051;-62
2023/02/06 07:26:40;;;;;;;10.15;7.95;;;;;4.10;100612.00;;;;4934858;29;20039;-62
2023/02/06 07:29:07;;;;;;;10.35;7.88;;;;;4.10;100618.00;;;;4934557;29;20058;-62
2023/02/06 07:31:33;;;;;;;11.20;8.40;;;;;4.10;100611.00;;;;4917574;29;20080;-62
2023/02/06 07:34:01;;;;;;;10.10;7.97;;;;;4.10;100607.00;;;;4917715;29;20107;-62
2023/02/06 07:36:27;;;;;;;11.63;7.90;;;;;4.10;100611.00;;;;4934372;29;20075;-62
2023/02/06 07:38:54;;;;;;;10.52;8.45;;;;;4.10;100615.00;;;;4934657;29;20043;-63
2023/02/06 07:41:20;;;;;;;10.55;7.90;;;;;4.10;100615.00;;;;4934467;29;20128;-62
2023/02/06 07:43:47;;;;;;;13.75;9.00;;;;;4.10;100620.00;;;;4934649;29;20051;-66
2023/02/06 07:46:14;;;;;;;12.05;8.90;;;;;4.10;100628.00;;;;4920521;29;20048;-64
2023/02/06 07:48:41;;;;;;;15.55;10.70;;;;;4.00;100630.00;;;;4938060;29;20044;-62
2023/02/06 07:51:08;;;;;;;11.77;9.18;;;;;4.00;100630.00;;;;4937898;29;20058;-63
2023/02/06 07:53:36;;;;;;;12.15;9.52;;;;;4.00;100624.00;;;;4938013;29;20591;-64
2023/02/06 07:56:15;;;;;;;12.32;9.05;;;;;4.10;100620.00;;;;4920356;29;20045;-64
2023/02/06 07:58:43;;;;;;;13.63;9.60;;;;;4.20;100620.00;;;;4937925;29;20044;-62
2023/02/06 08:01:09;;;;;;;11.27;9.15;;;;;4.20;100621.00;;;;4937998;29;20036;-64
2023/02/06 08:03:36;;;;;;;14.00;9.48;;;;;4.10;100618.00;;;;4920415;29;20083;-64
2023/02/06 08:06:11;;;;;;;11.65;9.50;;;;;4.20;100624.00;;;;4937163;29;20050;-63
2023/02/06 08:08:37;;;;;;;12.23;8.50;;;;;4.30;100618.00;;;;4937548;29;20055;-63
2023/02/06 08:11:06;;;;;;;11.77;8.25;;;;;4.40;100614.00;;;;4920422;29;20070;-63
2023/02/06 08:13:34;;;;;;;10.60;8.40;;;;;4.40;100614.00;;;;4920758;29;20062;-63
2023/02/06 08:16:03;;;;;;;12.32;9.13;;;;;4.40;100620.00;;;;4936896;29;20098;-63
2023/02/06 08:18:32;;;;;;;11.63;8.93;;;;;4.40;100611.00;;;;4937721;29;20039;-63
2023/02/06 08:21:04;;;;;;;13.85;9.00;;;;;4.30;100604.00;;;;4937465;29;20043;-64
2023/02/06 08:23:32;;;;;;;11.90;8.43;;;;;4.30;100609.00;;;;4937434;29;20044;-63
2023/02/06 08:26:03;;;;;;;10.52;8.32;;;;;4.30;100605.00;;;;4937056;29;20044;-64
2023/02/06 08:28:31;;;;;;;9.77;7.57;;;;;4.40;100608.00;;;;4937385;29;20054;-63
2023/02/06 08:30:57;;;;;;;10.57;7.88;;;;;4.50;100602.00;;;;4937239;29;20048;-63
2023/02/06 08:33:24;;;;;;;11.15;8.55;;;;;4.40;100600.00;;;;4937216;29;20078;-63
2023/02/06 08:35:51;;;;;;;10.07;7.57;;;;;4.50;100608.00;;;;4936387;29;20512;-63
2023/02/06 08:38:17;;;;;;;10.25;8.75;;;;;4.40;100600.00;;;;4937358;29;20095;-63
2023/02/06 08:40:44;;;;;;;10.18;8.32;;;;;4.40;100611.00;;;;4937198;29;20095;-63
2023/02/06 08:43:10;;;;;;;10.77;8.05;;;;;4.50;100610.00;;;;4936992;29;20054;-63
2023/02/06 08:45:37;;;;;;;11.32;7.60;;;;;4.50;100616.00;;;;4919485;29;20047;-63
2023/02/06 08:48:03;;;;;;;10.70;7.95;;;;;4.50;100615.00;;;;4920363;29;20386;-63
2023/02/06 08:50:30;;;;;;;11.32;7.55;;;;;4.40;100621.00;;;;4920140;29;20043;-63
2023/02/06 08:52:56;;;;;;;10.02;8.00;;;;;4.40;100612.00;;;;4936807;29;20077;-64
2023/02/06 08:55:23;;;;;;;11.18;8.15;;;;;4.40;100611.00;;;;4936466;29;20103;-63
2023/02/06 08:57:50;;;;;;;36.13;21.02;;;;;4.40;100618.00;;;;4936383;29;20057;-63
2023/02/06 09:00:18;;;;;;;10.68;8.38;;;;;4.40;100617.00;;;;4937012;29;20039;-63
2023/02/06 09:02:44;;;;;;;11.55;8.35;;;;;4.30;100610.00;;;;4936869;29;20047;-64
2023/02/06 09:05:11;;;;;;;12.50;8.30;;;;;4.30;100613.00;;;;4919594;29;20083;-64
2023/02/06 09:07:37;;;;;;;10.30;7.60;;;;;4.40;100618.00;;;;4936488;29;20039;-64
2023/02/06 09:10:04;;;;;;;10.50;7.72;;;;;4.40;100618.00;;;;4919466;29;20047;-64
2023/02/06 09:12:31;;;;;;;7.95;7.15;;;;;4.40;100617.00;;;;4936261;29;20064;-64
2023/02/06 09:14:57;;;;;;;9.30;8.10;;;;;4.40;100617.00;;;;4935955;29;20409;-64
2023/02/06 09:17:24;;;;;;;9.63;7.75;;;;;4.40;100617.00;;;;4919274;29;20408;-63
2023/02/06 09:19:50;;;;;;;8.65;7.28;;;;;4.40;100620.00;;;;4936303;29;20047;-64
2023/02/06 09:22:16;;;;;;;7.57;6.78;;;;;4.40;100616.00;;;;4936176;29;20416;-64
2023/02/06 09:24:43;;;;;;;9.23;7.45;;;;;4.40;100612.00;;;;4935590;29;20052;-64
2023/02/06 09:27:09;;;;;;;8.68;6.80;;;;;4.40;100614.00;;;;4936010;29;20177;-64
2023/02/06 09:29:36;;;;;;;6.72;6.03;;;;;4.40;100610.00;;;;4936086;29;20055;-64
2023/02/06 09:32:03;;;;;;;9.15;6.65;;;;;4.40;100606.00;;;;4936205;29;20460;-64
2023/02/06 09:34:29;;;;;;;6.93;5.80;;;;;4.50;100604.00;;;;4935291;29;20039;-64
2023/02/06 09:36:56;;;;;;;9.40;6.85;;;;;4.60;100614.00;;;;4936041;29;20052;-64
2023/02/06 09:39:23;;;;;;;9.20;6.30;;;;;4.60;100604.00;;;;4935825;29;20047;-64
2023/02/06 09:41:52;;;;;;;10.23;7.40;;;;;4.60;100599.00;;;;4919098;29;20058;-64
2023/02/06 09:44:32;;;;;;;7.20;6.50;;;;;4.80;100604.00;;;;4935234;29;20575;-63
2023/02/06 09:47:17;;;;;;;5.63;4.90;;;;;4.80;100605.00;;;;4935768;29;20051;-64
2023/02/06 09:49:50;;;;;;;7.30;5.25;;;;;4.90;100601.00;;;;4935604;29;20513;-64
2023/02/06 09:52:23;;;;;;;7.07;6.05;;;;;5.00;100601.00;;;;4935688;29;20131;-64
2023/02/06 09:55:01;;;;;;;7.60;5.82;;;;;5.10;100610.00;;;;4934971;29;20103;-64
2023/02/06 09:57:49;;;;;;;8.57;5.90;;;;;5.20;100605.00;;;;4918604;29;20043;-64
2023/02/06 10:00:45;;;;;;;8.13;5.20;;;;;5.30;100607.00;;;;4935927;29;20066;-64
2023/02/06 10:03:30;;;;;;;6.38;5.32;;;;;5.20;100604.00;;;;4935362;29;20048;-64
2023/02/06 10:06:19;;;;;;;5.53;4.47;;;;;5.20;100599.00;;;;4934840;29;20077;-64
2023/02/06 10:09:13;;;;;;;7.55;5.65;;;;;5.10;100601.00;;;;4934535;29;20043;-64
2023/02/06 10:11:58;;;;;;;4.28;3.63;;;;;5.20;100610.00;;;;4935597;29;20386;-63
2023/02/06 10:14:47;;;;;;;4.00;3.60;;;;;5.20;100605.00;;;;4934825;29;20055;-64
2023/02/06 10:17:21;;;;;;;4.32;3.92;;;;;5.20;100607.00;;;;4935699;29;20055;-63
2023/02/06 10:19:56;;;;;;;5.18;3.90;;;;;5.20;100597.00;;;;4935316;29;20055;-64
2023/02/06 10:22:58;;;;;;;5.30;4.30;;;;;5.30;100594.00;;;;4935272;29;20508;-64
2023/02/06 10:25:36;;;;;;;5.57;4.18;;;;;5.30;100592.00;;;;4931639;29;20060;-64
2023/02/06 10:28:28;;;;;;;7.38;4.90;;;;;5.30;100587.00;;;;4935230;29;20044;-64
2023/02/06 10:31:03;;;;;;;5.63;4.03;;;;;5.30;100578.00;;;;4935076;29;20501;-63
2023/02/06 10:34:10;;;;;;;6.30;4.22;;;;;5.40;100583.00;;;;4934785;29;20099;-64
2023/02/06 10:36:57;;;;;;;4.72;4.25;;;;;5.50;100570.00;;;;4917968;29;20044;-64
2023/02/06 10:39:46;;;;;;;7.43;5.53;;;;;5.50;100555.00;;;;4935178;29;20051;-63
2023/02/06 10:42:28;;;;;;;7.20;5.35;;;;;5.60;100553.00;;;;4918398;29;20060;-63
2023/02/06 10:45:20;;;;;;;7.53;5.25;;;;;5.70;100558.00;;;;4935040;29;20434;-64
2023/02/06 10:48:01;;;;;;;6.63;4.88;;;;;5.80;100553.00;;;;4935257;29;20047;-63
2023/02/06 10:50:54;;;;;;;11.15;5.32;;;;;5.80;100551.00;;;;4935560;29;20068;-64
2023/02/06 10:53:34;;;;;;;7.43;5.50;;;;;5.80;100542.00;;;;4933594;29;20071;-63
2023/02/06 10:56:12;;;;;;;7.45;5.90;;;;;5.80;100550.00;;;;4934865;29;20043;-63
2023/02/06 10:58:44;;;;;;;7.88;6.38;;;;;5.80;100565.00;;;;4935092;29;20568;-64
2023/02/06 11:01:13;;;;;;;9.73;6.28;;;;;5.70;100553.00;;;;4936609;29;20047;-65
2023/02/06 11:04:02;;;;;;;7.25;5.10;;;;;5.80;100545.00;;;;4937541;29;20051;-63
2023/02/06 11:06:29;;;;;;;7.38;5.18;;;;;5.80;100541.00;;;;4935432;29;20123;-63
2023/02/06 11:08:56;;;;;;;4.43;3.88;;;;;5.80;100554.00;;;;4935504;29;20047;-62
2023/02/06 11:11:28;;;;;;;4.95;3.45;;;;;5.90;100549.00;;;;4935538;29;20097;-63
2023/02/06 11:14:13;;;;;;;7.63;4.50;;;;;5.90;100552.00;;;;4935522;29;20409;-63
2023/02/06 11:16:40;;;;;;;4.30;3.08;;;;;5.90;100539.00;;;;4935429;29;20050;-63
2023/02/06 11:19:24;;;;;;;4.93;2.92;;;;;5.90;100536.00;;;;4935125;29;20046;-63
2023/02/06 11:21:55;;;;;;;4.00;3.05;;;;;5.90;100528.00;;;;4938645;29;20052;-63
2023/02/06 11:24:23;;;;;;;3.58;2.80;;;;;5.90;100530.00;;;;4938222;29;20051;-64
2023/02/06 11:27:02;;;;;;;4.30;3.03;;;;;5.90;100519.00;;;;4939216;29;20091;-63
2023/02/06 11:29:34;;;;;;;4.75;3.00;;;;;5.90;100519.00;;;;4938959;29;20047;-64
2023/02/06 11:32:04;;;;;;;3.42;2.92;;;;;6.10;100503.00;;;;4938543;29;20044;-64
2023/02/06 11:34:43;;;;;;;3.83;3.25;;;;;6.10;100498.00;;;;4921014;29;20087;-63
2023/02/06 11:37:35;;;;;;;3.78;3.13;;;;;5.90;100495.00;;;;4938417;29;20048;-64
2023/02/06 11:40:27;;;;;;;3.15;2.70;;;;;5.70;100490.00;;;;4938450;29;20091;-64
2023/02/06 11:43:18;;;;;;;5.32;3.60;;;;;5.70;100510.00;;;;4919586;29;20067;-64
2023/02/06 11:45:47;;;;;;;4.22;3.30;;;;;5.60;100501.00;;;;4937676;29;20054;-64
2023/02/06 11:48:34;;;;;;;3.80;2.97;;;;;5.60;100499.00;;;;4938091;29;20081;-62
2023/02/06 11:51:00;;;;;;;3.92;2.83;;;;;5.40;100504.00;;;;4937745;29;20494;-64
2023/02/06 11:53:27;;;;;;;4.05;3.20;;;;;5.30;100492.00;;;;4937918;29;20094;-64
2023/02/06 11:56:04;;;;;;;3.00;2.30;;;;;5.30;100486.00;;;;4937485;29;20040;-64
2023/02/06 11:58:32;;;;;;;7.07;3.00;;;;;5.50;100484.00;;;;4937845;29;20044;-64
2023/02/06 12:01:05;;;;;;;5.43;3.08;;;;;5.70;100481.00;;;;4920844;29;20054;-63
2023/02/06 12:03:50;;;;;;;3.30;2.88;;;;;5.90;100490.00;;;;4937532;29;20508;-63
2023/02/06 12:06:33;;;;;;;2.53;2.25;;;;;5.90;100483.00;;;;4937234;29;20048;-64
2023/02/06 12:09:04;;;;;;;2.40;2.20;;;;;5.90;100467.00;;;;4920874;29;20048;-64
2023/02/06 12:11:42;;;;;;;3.17;2.30;;;;;6.10;100471.00;;;;4937484;29;20095;-64
2023/02/06 12:14:28;;;;;;;3.22;2.17;;;;;6.20;100468.00;;;;4936957;29;20493;-63
2023/02/06 12:16:55;;;;;;;3.40;2.30;;;;;6.10;100461.00;;;;4937787;29;20046;-64
2023/02/06 12:19:30;;;;;;;4.03;2.65;;;;;6.20;100461.00;;;;4937539;29;20048;-64
2023/02/06 12:22:03;;;;;;;2.85;1.88;;;;;6.20;100455.00;;;;4937576;29;20058;-64
2023/02/06 12:24:46;;;;;;;2.83;2.20;;;;;6.40;100454.00;;;;4936976;29;20043;-65
2023/02/06 12:27:18;;;;;;;2.85;2.38;;;;;6.50;100458.00;;;;4920357;29;20505;-64
2023/02/06 12:30:19;;;;;;;2.30;2.10;;;;;6.70;100460.00;;;;4920458;29;20104;-63